This is the latest recevied weather packets stored in our database for station/object DB0TGO-10. If no packets are shown the sender has not sent any weather packets the latest 10 day(s).
| Time | Temp. | Humidity | Pressure | Rain* | Wind** | Luminosity | Snow |
|---|---|---|---|---|---|---|---|
| 1777634346 | 22.78° C | 32% | 1029.4 hPa | 0 mm | - | - | - |
| 1777631055 | 22.78° C | 30% | 1029.9 hPa | 0 mm | - | - | - |
| 1777627661 | 22.22° C | 32% | 1030.3 hPa | 0 mm | - | - | - |
| 1777624356 | 19.44° C | 40% | 1030.5 hPa | 0 mm | - | - | - |
| 1777621321 | 17.22° C | 45% | 1030.6 hPa | 0 mm | - | - | - |
| 1777618049 | 13.89° C | 55% | 1030.7 hPa | 0 mm | - | - | - |
| 1777614661 | 11.11° C | 69% | 1030.5 hPa | 0 mm | - | - | - |
| 1777611676 | 7.78° C | 86% | 1030.4 hPa | 0 mm | - | - | - |
| 1777608436 | 4.44° C | 97% | 1030.5 hPa | 0 mm | - | - | - |
| 1777603261 | 5° C | 95% | 1030.3 hPa | 0 mm | - | - | - |
| 1777596721 | 6.67° C | 92% | 1030.3 hPa | 0 mm | - | - | - |
| 1777593476 | 7.78° C | 88% | 1030.1 hPa | 0 mm | - | - | - |
| 1777590456 | 7.78° C | 81% | 1030.3 hPa | 0 mm | - | - | - |
| 1777587256 | 10.56° C | 74% | 1030.4 hPa | 0 mm | - | - | - |
| 1777584256 | 12.22° C | 60% | 1030.4 hPa | 0 mm | - | - | - |
| 1777581206 | 12.22° C | 60% | 1030.2 hPa | 0 mm | - | - | - |
| 1777577750 | 13.33° C | 60% | 1030.1 hPa | 0 mm | - | - | - |
| 1777574286 | 16.67° C | 46% | 1029.8 hPa | 0 mm | - | - | - |
| 1777571090 | 20.56° C | 34% | 1029.6 hPa | 0 mm | - | - | - |
| 1777568177 | 21.67° C | 32% | 1029.6 hPa | 0 mm | - | - | - |
| 1777561270 | 22.22° C | 28% | 1030.2 hPa | 0 mm | - | - | - |
| 1777558443 | 22.22° C | 28% | 1030.7 hPa | 0 mm | - | - | - |
| 1777555106 | 21.11° C | 31% | 1031 hPa | 0 mm | - | - | - |
| 1777551888 | 20.56° C | 30% | 1031.4 hPa | 0 mm | - | - | - |
| 1777548729 | 18.89° C | 34% | 1032.1 hPa | 0 mm | - | - | - |
* Rain latest hour (hover to see other rain measurements)
** Current wind speed in m/s (hover to see current wind gust speed)